Hot Springs, SD (57747)

2:46 PM MDT on July 28, 2014 (GMT -0600)
Chadron Municipal (KCDR) Elev 3297 ft | 42.84 °N, 103.10 °W | Change Station

Current weather conditions updated 53 minutes ago

Partly Cloudy
Partly Cloudy
85 °F
Feels Like 84 °F
N
10
Wind Variable Wind from ESE

Today is forecast to be Cooler than yesterday.

Today
High -- | Low -- °F
--% Chance of Precip.
Yesterday
High -- | Low -- °F
Precip. -- in
5:39 AM 8:20 PM
Waxing Crescent, 3% visible
Pressure 30.19 in
Visibility 10.0 miles
Clouds Few 6000 ft
Heat Index 84 °F
Dew Point 55 °F
Humidity 36%
Rainfall 0.00 in
Snow Depth Not available.
UV 10 out of 12
Pollen 7.00 out of 12
Air Quality Not available.
Flu Activity Not available.
METAR KCDR 281953Z AUTO 12009KT 10SM FEW060 29/13 A3025 RMK AO2 SLP222 T02940128

More Conditions Fewer Conditions

Pressure 30.19 in
Visibility 10.0 miles
Clouds Few 6000 ft
Heat Index 84 °F
Dew Point 55 °F
Humidity 36%
Rainfall 0.00 in
Snow Depth Not available.
UV 10 out of 12
Pollen 7.00 out of 12
Air Quality Not available.
Flu Activity Not available.
METAR KCDR 281953Z AUTO 12009KT 10SM FEW060 29/13 A3025 RMK AO2 SLP222 T02940128

More Conditions Fewer Conditions

10-Day Weather Forecast

Almanac

Astronomy

Jul. 28, 2014 Rise Set
Actual Time 5:39 AM MDT 8:20 PM MDT
Civil Twilight 5:06 AM MDT 8:53 PM MDT
Nautical Twilight 4:24 AM MDT 9:34 PM MDT
Astronomical Twilight 3:37 AM MDT 10:22 PM MDT
Moon 7:27 AM MDT 8:58 PM MDT
Length of Visible Light 15h 47m
Length of Day
14h 41m
Tomorrow will be 2m 9s shorter.
Waxing Crescent, 3% of the Moon is Illuminated
Today
Waxing Crescent
Aug 3
First Quarter
Aug 10
Full
Aug 17
Last Quarter
Aug 25
New

Today's Extremes

State Highs State Lows

Community

WunderPhotos

Upload Photos

1,738,488 photos uploaded!

Nearby

Snow Depth

Station Depth Elevation
Blind Park 0 in 6890 ft

Earthquake Activity

City Distance Mag. Time & Date
No recent earthquake activity has been reported nearby.
Minimum magnitude displayed is 2.5.

Coastal Water Temperatures

Place Temperature
No Stations Reporting

Nearby Weather Stations

Station Location Temp. Heat Index Dew Point Humidity Wind Precip. Elev Updated Type
HADS BEAVER CREEK NEAR BUFFALO GAP 2S SD, Buffalo Gap, SD 80 °F 78 °F - - North  at  - 0.00 in / hr 3149 ft 1:45 PM MDT MADIS
RAWS RED CANYON SD, Edgemont, SD 80 °F 80 °F 53 °F 40% SE  at  7 mph 0.00 in / hr 4644 ft 1:57 PM MDT MADIS

Show More Stations Show Fewer Stations